createdAt,value
2019-02-18T00:01:25.309Z,17.40
2019-02-18T00:03:52.580Z,16.47
2019-02-18T00:06:19.844Z,16.70
2019-02-18T00:08:47.093Z,16.20
2019-02-18T00:11:14.371Z,16.23
2019-02-18T00:13:41.624Z,14.70
2019-02-18T00:16:08.846Z,13.93
2019-02-18T00:18:36.111Z,13.30
2019-02-18T00:21:03.353Z,14.53
2019-02-18T00:23:30.569Z,14.57
2019-02-18T00:25:57.932Z,14.63
2019-02-18T00:28:25.144Z,13.67
2019-02-18T00:30:52.372Z,15.17
2019-02-18T00:33:19.661Z,14.53
2019-02-18T00:35:46.881Z,13.83
2019-02-18T00:38:14.090Z,13.30
2019-02-18T00:40:41.337Z,13.80
2019-02-18T00:43:08.608Z,13.90
2019-02-18T00:45:35.826Z,14.00
2019-02-18T00:48:03.085Z,13.73
2019-02-18T00:50:30.309Z,13.77
2019-02-18T00:52:57.827Z,13.60
2019-02-18T00:55:25.087Z,13.23
2019-02-18T00:57:52.312Z,14.53
2019-02-18T01:00:19.725Z,13.93
2019-02-18T01:02:47.007Z,13.63
2019-02-18T01:05:14.247Z,13.83
2019-02-18T01:07:41.481Z,15.53
2019-02-18T01:10:09.870Z,16.23
2019-02-18T01:12:37.166Z,15.47
2019-02-18T01:15:05.334Z,15.63
2019-02-18T01:17:32.684Z,15.97
2019-02-18T01:19:59.890Z,17.63
2019-02-18T01:22:27.109Z,16.80
2019-02-18T01:24:54.402Z,16.07
2019-02-18T01:27:21.655Z,17.23
2019-02-18T01:29:48.882Z,17.10
2019-02-18T01:32:16.123Z,16.67
2019-02-18T01:34:43.353Z,15.90
2019-02-18T01:37:10.570Z,17.43
2019-02-18T01:39:37.951Z,16.00
2019-02-18T01:42:05.216Z,14.80
2019-02-18T01:44:32.465Z,15.53
2019-02-18T01:46:59.689Z,15.50
2019-02-18T01:49:26.919Z,15.77
2019-02-18T01:51:54.193Z,15.70
2019-02-18T01:54:21.400Z,15.60
2019-02-18T01:56:48.620Z,16.13
2019-02-18T01:59:15.881Z,14.57
2019-02-18T02:01:43.159Z,15.20
2019-02-18T02:04:10.387Z,14.00
2019-02-18T02:06:37.766Z,13.27
2019-02-18T02:09:08.220Z,15.07
2019-02-18T02:11:35.468Z,15.00
2019-02-18T02:14:02.701Z,15.60
2019-02-18T02:16:29.942Z,15.27
2019-02-18T02:18:57.228Z,13.77
2019-02-18T02:21:24.505Z,12.70
2019-02-18T02:23:51.774Z,12.33
2019-02-18T02:26:19.039Z,12.13
2019-02-18T02:28:46.271Z,12.87
2019-02-18T02:31:13.471Z,11.90
2019-02-18T02:33:40.752Z,12.03
2019-02-18T02:36:07.968Z,12.40
2019-02-18T02:38:35.239Z,12.50
2019-02-18T02:41:02.624Z,13.53
2019-02-18T02:43:29.883Z,14.53
2019-02-18T02:45:57.059Z,12.70
2019-02-18T02:48:24.306Z,13.23
2019-02-18T02:50:51.549Z,13.77
2019-02-18T02:53:18.811Z,14.37
2019-02-18T02:55:46.079Z,13.67
2019-02-18T02:58:13.328Z,14.17
2019-02-18T03:00:40.616Z,13.43
2019-02-18T03:03:08.180Z,13.63
2019-02-18T03:05:35.395Z,12.47
2019-02-18T03:08:02.654Z,12.67
2019-02-18T03:10:29.876Z,12.97
2019-02-18T03:12:57.101Z,13.30
2019-02-18T03:15:24.399Z,14.13
2019-02-18T03:17:51.619Z,13.33
2019-02-18T03:20:18.857Z,13.63
2019-02-18T03:22:46.109Z,15.37
2019-02-18T03:25:24.295Z,15.00
2019-02-18T03:28:01.416Z,13.97
2019-02-18T03:30:58.923Z,14.70
2019-02-18T03:33:30.009Z,13.90
2019-02-18T03:35:57.257Z,13.20
2019-02-18T03:38:31.660Z,13.17
2019-02-18T03:41:02.803Z,13.07
2019-02-18T03:43:23.235Z,12.63
2019-02-18T03:45:50.492Z,13.20
2019-02-18T03:48:17.708Z,12.80
2019-02-18T03:50:45.008Z,12.10
2019-02-18T03:53:12.228Z,12.80
2019-02-18T03:55:39.457Z,14.40
2019-02-18T03:58:06.703Z,13.57
2019-02-18T04:00:34.025Z,14.30
2019-02-18T04:03:01.361Z,13.57
2019-02-18T04:05:28.633Z,13.47
2019-02-18T04:07:55.895Z,14.70
2019-02-18T04:10:23.165Z,14.47
2019-02-18T04:12:50.431Z,13.63
2019-02-18T04:15:17.659Z,14.33
2019-02-18T04:17:44.885Z,14.20
2019-02-18T04:20:12.333Z,13.57
2019-02-18T04:22:39.553Z,14.47
2019-02-18T04:25:07.279Z,14.47
2019-02-18T04:27:34.548Z,14.30
2019-02-18T04:30:01.764Z,15.77
2019-02-18T04:32:28.968Z,15.77
2019-02-18T04:34:56.224Z,14.50
2019-02-18T04:37:23.445Z,14.70
2019-02-18T04:39:50.700Z,14.70
2019-02-18T04:42:17.904Z,14.67
2019-02-18T04:44:45.256Z,14.57
2019-02-18T04:47:12.606Z,15.63
2019-02-18T04:49:39.873Z,14.67
2019-02-18T04:52:07.406Z,16.20
2019-02-18T04:54:34.675Z,16.70
2019-02-18T04:57:01.908Z,16.70
2019-02-18T04:59:29.105Z,15.90
2019-02-18T05:01:56.358Z,15.70
2019-02-18T05:04:23.589Z,15.23
2019-02-18T05:06:50.830Z,16.33
2019-02-18T05:09:18.119Z,14.40
2019-02-18T05:11:45.340Z,14.80
2019-02-18T05:14:12.548Z,14.63
2019-02-18T05:16:39.797Z,14.40
2019-02-18T05:19:07.016Z,15.37
2019-02-18T05:21:34.230Z,15.47
2019-02-18T05:24:01.503Z,15.57
2019-02-18T05:26:28.726Z,15.63
2019-02-18T05:28:55.953Z,15.63
2019-02-18T05:31:23.247Z,13.80
2019-02-18T05:33:50.461Z,14.97
2019-02-18T05:36:17.682Z,14.73
2019-02-18T05:38:44.928Z,14.97
2019-02-18T05:41:12.216Z,15.00
2019-02-18T05:43:39.430Z,14.03
2019-02-18T05:46:08.699Z,14.27
2019-02-18T05:48:35.818Z,13.07
2019-02-18T05:51:03.089Z,12.30
2019-02-18T05:53:30.307Z,12.43
2019-02-18T05:55:57.581Z,13.23
2019-02-18T05:58:24.832Z,12.53
2019-02-18T06:00:52.062Z,13.60
2019-02-18T06:03:19.334Z,12.17
2019-02-18T06:05:46.545Z,13.03
2019-02-18T06:08:13.827Z,12.57
2019-02-18T06:10:41.104Z,11.93
2019-02-18T06:13:08.329Z,12.77
2019-02-18T06:15:35.579Z,11.97
2019-02-18T06:18:02.877Z,12.13
2019-02-18T06:20:30.106Z,11.33
2019-02-18T06:22:57.345Z,12.07
2019-02-18T06:25:24.567Z,11.37
2019-02-18T06:27:51.787Z,11.87
2019-02-18T06:30:19.028Z,11.53
2019-02-18T06:32:46.260Z,11.53
2019-02-18T06:35:13.502Z,12.20
2019-02-18T06:37:40.702Z,11.73
2019-02-18T06:40:08.073Z,12.07
2019-02-18T06:42:35.403Z,12.60
2019-02-18T06:45:22.239Z,11.73
2019-02-18T06:47:49.669Z,11.07
2019-02-18T06:50:16.906Z,11.10
2019-02-18T06:52:44.116Z,10.70
2019-02-18T06:55:12.360Z,11.60
2019-02-18T06:57:59.174Z,12.77
2019-02-18T07:00:50.421Z,12.30
2019-02-18T07:03:52.127Z,13.77
2019-02-18T07:06:35.878Z,12.87
2019-02-18T07:09:15.747Z,11.67
2019-02-18T07:12:05.163Z,11.33
2019-02-18T07:14:32.378Z,11.47
2019-02-18T07:16:59.592Z,11.97
2019-02-18T07:19:27.172Z,10.60
2019-02-18T07:21:54.466Z,11.20
2019-02-18T07:24:22.112Z,11.27
2019-02-18T07:26:49.362Z,11.30
2019-02-18T07:29:16.693Z,11.37
2019-02-18T07:31:43.937Z,11.47
2019-02-18T07:34:11.172Z,11.03
2019-02-18T07:36:38.386Z,11.47
2019-02-18T07:39:06.517Z,11.23
2019-02-18T07:41:33.783Z,10.40
2019-02-18T07:44:01.027Z,11.70
2019-02-18T07:46:30.943Z,10.70
2019-02-18T07:48:58.635Z,10.90
2019-02-18T07:51:25.899Z,10.60
2019-02-18T07:53:53.281Z,8.10
2019-02-18T07:56:20.504Z,9.83
2019-02-18T07:58:47.783Z,10.73
2019-02-18T08:01:15.016Z,14.20
2019-02-18T08:03:42.246Z,14.10
2019-02-18T08:06:09.509Z,11.83
2019-02-18T08:08:36.797Z,11.27
2019-02-18T08:11:04.024Z,12.40
2019-02-18T08:13:31.487Z,11.93
2019-02-18T08:15:58.718Z,11.37
2019-02-18T08:18:25.932Z,10.60
2019-02-18T08:20:54.233Z,10.70
2019-02-18T08:23:21.541Z,11.80
2019-02-18T08:25:48.784Z,10.13
2019-02-18T08:28:16.218Z,10.57
2019-02-18T08:30:43.606Z,12.37
2019-02-18T08:33:10.862Z,12.50
2019-02-18T08:35:38.109Z,13.73
2019-02-18T08:38:05.334Z,12.83
2019-02-18T08:40:32.586Z,11.30
2019-02-18T08:43:00.007Z,12.80
2019-02-18T08:45:27.252Z,12.23
2019-02-18T08:47:54.468Z,12.13
2019-02-18T08:50:21.737Z,10.47
2019-02-18T08:52:48.964Z,11.10
2019-02-18T08:55:16.255Z,13.13
2019-02-18T08:57:43.486Z,10.93
2019-02-18T09:00:13.570Z,13.03
2019-02-18T09:02:40.877Z,13.17
2019-02-18T09:05:08.136Z,13.20
2019-02-18T09:07:35.396Z,12.90
2019-02-18T09:10:03.243Z,13.73
2019-02-18T09:12:30.479Z,13.73
2019-02-18T09:14:57.749Z,14.17
2019-02-18T09:17:24.987Z,12.53
2019-02-18T09:19:52.293Z,14.73
2019-02-18T09:22:50.950Z,14.00
2019-02-18T09:25:21.271Z,14.13
2019-02-18T09:27:50.688Z,13.20
2019-02-18T09:30:20.911Z,13.80
2019-02-18T09:32:48.182Z,14.13
2019-02-18T09:35:15.443Z,14.20
2019-02-18T09:37:42.848Z,13.03
2019-02-18T09:40:10.391Z,12.57
2019-02-18T09:42:37.697Z,13.33
2019-02-18T09:45:06.171Z,14.07
2019-02-18T09:47:33.389Z,14.07
2019-02-18T09:50:00.688Z,14.07
2019-02-18T09:52:27.923Z,14.07
2019-02-18T09:54:55.225Z,13.83
2019-02-18T09:57:22.495Z,14.00
2019-02-18T09:59:49.754Z,14.67
2019-02-18T10:02:17.044Z,14.50
2019-02-18T10:04:44.302Z,14.10
2019-02-18T10:07:11.672Z,14.63
2019-02-18T10:09:38.985Z,14.37
2019-02-18T10:12:06.256Z,14.43
2019-02-18T10:14:33.517Z,15.10
2019-02-18T10:17:00.766Z,14.20
2019-02-18T10:19:27.990Z,14.90
2019-02-18T10:21:55.291Z,14.40
2019-02-18T10:24:22.562Z,15.00
2019-02-18T10:26:49.807Z,15.40
2019-02-18T10:29:17.100Z,14.47
2019-02-18T10:31:44.442Z,14.50
2019-02-18T10:34:11.763Z,14.87
2019-02-18T10:36:39.043Z,13.00
2019-02-18T10:39:06.515Z,14.23
2019-02-18T10:41:33.743Z,14.73
2019-02-18T10:44:02.940Z,14.37
2019-02-18T10:46:30.314Z,15.13
2019-02-18T10:48:57.703Z,14.63
2019-02-18T10:51:28.408Z,14.50
2019-02-18T10:53:55.625Z,15.00
2019-02-18T10:56:23.005Z,15.17
2019-02-18T10:58:50.239Z,14.80
2019-02-18T11:01:17.468Z,15.00
2019-02-18T11:03:44.742Z,15.47
2019-02-18T11:06:12.068Z,15.50
2019-02-18T11:08:39.402Z,14.17
2019-02-18T11:11:16.425Z,15.00
2019-02-18T11:13:35.830Z,14.50
2019-02-18T11:16:03.336Z,14.83
2019-02-18T11:18:30.611Z,14.67
2019-02-18T11:20:57.865Z,15.17
2019-02-18T11:23:27.596Z,15.10
2019-02-18T11:25:54.880Z,13.93
2019-02-18T11:28:22.190Z,14.77
2019-02-18T11:30:49.728Z,14.23
2019-02-18T11:33:16.978Z,14.17
2019-02-18T11:35:44.336Z,14.70
2019-02-18T11:38:12.059Z,14.57
2019-02-18T11:40:39.346Z,14.93
2019-02-18T11:43:06.639Z,16.40
2019-02-18T11:45:34.857Z,14.40
2019-02-18T11:48:02.332Z,14.53
2019-02-18T11:50:30.134Z,14.03
2019-02-18T11:53:04.667Z,15.53
2019-02-18T11:55:32.166Z,14.27
2019-02-18T11:57:59.399Z,15.77
2019-02-18T12:00:30.258Z,15.70
2019-02-18T12:03:03.655Z,15.60
2019-02-18T12:05:26.702Z,11.93
2019-02-18T12:07:54.018Z,15.00
2019-02-18T12:10:21.616Z,15.00
2019-02-18T12:12:49.571Z,14.47
2019-02-18T12:15:16.877Z,16.33
2019-02-18T12:17:44.136Z,14.63
2019-02-18T12:20:12.115Z,15.17
2019-02-18T12:22:39.466Z,10.43
2019-02-18T12:25:06.926Z,14.40
2019-02-18T12:27:34.159Z,14.00
2019-02-18T12:30:01.653Z,15.47
2019-02-18T12:32:28.883Z,16.43
2019-02-18T12:34:56.129Z,15.07
2019-02-18T12:37:23.436Z,14.40
2019-02-18T12:39:50.772Z,14.47
2019-02-18T12:42:18.063Z,14.27
2019-02-18T12:44:45.390Z,13.73
2019-02-18T12:47:12.767Z,14.07
2019-02-18T12:49:40.055Z,14.87
2019-02-18T12:52:09.137Z,13.40
2019-02-18T12:54:37.590Z,11.43
2019-02-18T12:57:04.915Z,13.60
2019-02-18T12:59:32.461Z,13.90
2019-02-18T13:02:00.009Z,11.87
2019-02-18T13:04:27.297Z,12.47
2019-02-18T13:06:55.024Z,12.63
2019-02-18T13:09:22.408Z,12.43
2019-02-18T13:11:58.752Z,12.00
2019-02-18T13:14:18.849Z,12.60
2019-02-18T13:16:46.108Z,12.47
2019-02-18T13:19:14.102Z,12.50
2019-02-18T13:21:41.551Z,12.17
2019-02-18T13:24:08.855Z,11.13
2019-02-18T13:26:36.425Z,10.77
2019-02-18T13:29:03.678Z,11.70
2019-02-18T13:31:30.934Z,11.27
2019-02-18T13:33:58.248Z,10.67
2019-02-18T13:36:25.560Z,10.47
2019-02-18T13:38:52.907Z,11.53
2019-02-18T13:41:20.182Z,10.90
2019-02-18T13:43:47.463Z,12.53
2019-02-18T13:46:14.847Z,10.87
2019-02-18T13:48:42.091Z,11.83
2019-02-18T13:51:09.329Z,12.50
2019-02-18T13:53:36.673Z,11.70
2019-02-18T13:56:05.472Z,13.27
2019-02-18T13:58:32.738Z,12.77
2019-02-18T14:01:00.056Z,12.73
2019-02-18T14:03:27.536Z,11.97
2019-02-18T14:05:54.812Z,13.37
2019-02-18T14:08:22.308Z,12.83
2019-02-18T14:10:49.707Z,13.50
2019-02-18T14:13:17.174Z,13.70
2019-02-18T14:15:44.430Z,13.83
2019-02-18T14:18:11.710Z,12.50
2019-02-18T14:20:39.132Z,13.63
2019-02-18T14:23:06.429Z,13.60
2019-02-18T14:25:33.712Z,13.50
2019-02-18T14:28:01.058Z,12.47
2019-02-18T14:30:28.604Z,12.40
2019-02-18T14:32:55.901Z,13.33
2019-02-18T14:35:23.124Z,13.70
2019-02-18T14:37:50.706Z,10.83
2019-02-18T14:40:18.559Z,13.20
2019-02-18T14:42:45.806Z,13.77
2019-02-18T14:45:14.485Z,14.57
2019-02-18T14:47:41.768Z,14.70
2019-02-18T14:50:09.486Z,14.27
2019-02-18T14:52:36.701Z,13.80
2019-02-18T14:55:05.295Z,12.40
2019-02-18T14:57:33.083Z,13.23
2019-02-18T15:00:00.314Z,14.03
2019-02-18T15:02:28.321Z,15.47
2019-02-18T15:04:55.734Z,16.17
2019-02-18T15:07:23.358Z,15.40
2019-02-18T15:09:50.684Z,15.43
2019-02-18T15:12:18.539Z,13.77
2019-02-18T15:14:46.105Z,13.90
2019-02-18T15:17:13.327Z,15.57
2019-02-18T15:19:42.778Z,16.17
2019-02-18T15:22:10.074Z,14.97
2019-02-18T15:24:37.538Z,16.60
2019-02-18T15:27:05.313Z,14.47
2019-02-18T15:29:32.984Z,15.77
2019-02-18T15:32:00.391Z,15.73
2019-02-18T15:34:27.671Z,16.23
2019-02-18T15:36:54.972Z,14.73
2019-02-18T15:39:22.233Z,16.80
2019-02-18T15:41:49.458Z,15.57
2019-02-18T15:44:17.419Z,16.93
2019-02-18T15:46:45.068Z,16.37
2019-02-18T15:49:12.345Z,16.17
2019-02-18T15:51:39.937Z,15.53
2019-02-18T15:54:07.183Z,17.67
2019-02-18T15:56:34.474Z,17.47
2019-02-18T15:59:01.727Z,17.40
2019-02-18T16:01:29.024Z,16.20
2019-02-18T16:03:56.599Z,15.93
2019-02-18T16:06:23.805Z,15.37
2019-02-18T16:08:51.087Z,14.77
2019-02-18T16:11:18.323Z,15.43
2019-02-18T16:13:45.542Z,13.90
2019-02-18T16:16:12.805Z,15.30
2019-02-18T16:18:40.031Z,14.83
2019-02-18T16:21:07.750Z,14.20
2019-02-18T16:23:35.035Z,14.57
2019-02-18T16:26:02.342Z,13.60
2019-02-18T16:28:29.635Z,12.13
2019-02-18T16:30:56.898Z,12.30
2019-02-18T16:33:24.161Z,10.83
2019-02-18T16:35:51.422Z,10.87
2019-02-18T16:38:18.700Z,12.03
2019-02-18T16:40:46.260Z,12.10
2019-02-18T16:43:13.473Z,11.07
2019-02-18T16:45:40.760Z,11.37
2019-02-18T16:48:08.852Z,11.03
2019-02-18T16:50:36.327Z,10.83
2019-02-18T17:32:21.669Z,14.50
2019-02-18T17:34:48.887Z,14.73
2019-02-18T17:37:16.128Z,16.50
2019-02-18T17:39:43.648Z,15.97
2019-02-18T17:42:10.885Z,14.63
2019-02-18T17:44:38.148Z,15.27
2019-02-18T17:47:05.414Z,14.93
2019-02-18T17:49:33.065Z,14.20
2019-02-18T17:52:00.287Z,28.67
2019-02-18T17:54:27.583Z,40.30
2019-02-18T17:56:54.835Z,80.77
2019-02-18T17:59:23.143Z,27.73
2019-02-18T18:01:50.356Z,16.77
2019-02-18T18:04:17.619Z,17.73
2019-02-18T18:06:44.831Z,17.20
2019-02-18T18:09:12.259Z,18.13
2019-02-18T18:11:39.539Z,21.70
2019-02-18T18:14:06.804Z,24.23
2019-02-18T18:16:34.147Z,23.87
2019-02-18T18:19:09.051Z,19.43
2019-02-18T18:21:30.526Z,19.20
2019-02-18T18:23:57.854Z,16.43
2019-02-18T18:26:25.176Z,18.17
2019-02-18T18:28:52.444Z,17.30
2019-02-18T18:31:19.817Z,18.27
2019-02-18T18:33:47.090Z,19.20
2019-02-18T18:36:14.337Z,18.80
2019-02-18T18:38:41.654Z,17.77
2019-02-18T18:41:08.851Z,18.23
2019-02-18T18:43:36.335Z,19.50
2019-02-18T18:46:04.720Z,19.70
2019-02-18T18:48:32.290Z,18.77
2019-02-18T18:50:59.510Z,19.57
2019-02-18T18:53:26.776Z,15.47
2019-02-18T18:55:54.029Z,19.03
2019-02-18T18:58:21.256Z,19.07
2019-02-18T19:00:48.542Z,18.07
2019-02-18T19:03:15.766Z,18.80
2019-02-18T19:05:43.011Z,17.03
2019-02-18T19:08:10.482Z,19.30
2019-02-18T19:10:37.729Z,20.23
2019-02-18T19:13:04.977Z,18.30
2019-02-18T19:15:32.267Z,19.27
2019-02-18T19:17:59.482Z,19.43
2019-02-18T19:20:26.803Z,15.87
2019-02-18T19:22:54.012Z,16.37
2019-02-18T19:25:21.542Z,18.20
2019-02-18T19:27:48.866Z,17.77
2019-02-18T19:30:19.674Z,16.37
2019-02-18T19:32:47.461Z,17.97
2019-02-18T19:35:14.747Z,18.60
2019-02-18T19:37:41.996Z,16.97
2019-02-18T19:40:10.410Z,18.07
2019-02-18T19:42:37.960Z,18.00
2019-02-18T19:45:06.821Z,17.27
2019-02-18T19:47:34.043Z,16.90
2019-02-18T19:50:02.939Z,16.93
2019-02-18T19:52:30.153Z,17.17
2019-02-18T19:54:57.368Z,17.57
2019-02-18T19:57:24.630Z,16.97
2019-02-18T19:59:51.883Z,16.63
2019-02-18T20:02:19.096Z,16.70
2019-02-18T20:04:46.869Z,16.77
2019-02-18T20:07:14.082Z,17.60
2019-02-18T20:09:41.320Z,17.13
2019-02-18T20:12:08.626Z,16.63
2019-02-18T20:14:35.854Z,16.67
2019-02-18T20:17:03.191Z,18.90
2019-02-18T20:19:30.504Z,17.90
2019-02-18T20:21:57.933Z,17.70
2019-02-18T20:24:25.269Z,18.47
2019-02-18T20:26:53.330Z,18.60
2019-02-18T20:29:20.549Z,19.00
2019-02-18T20:31:47.805Z,18.20
2019-02-18T20:34:15.259Z,20.53
2019-02-18T20:36:42.539Z,19.00
2019-02-18T20:39:11.684Z,20.73
2019-02-18T20:41:38.957Z,22.00
2019-02-18T20:44:07.689Z,21.77
2019-02-18T20:46:35.079Z,21.27
2019-02-18T20:49:02.354Z,22.40
2019-02-18T20:51:29.612Z,22.13
2019-02-18T20:53:56.845Z,19.53
2019-02-18T20:56:24.585Z,20.93
2019-02-18T20:58:51.810Z,19.47
2019-02-18T21:01:19.365Z,18.73
2019-02-18T21:03:46.555Z,18.57
2019-02-18T21:06:13.801Z,20.70
2019-02-18T21:08:41.111Z,20.60
2019-02-18T21:11:08.350Z,20.33
2019-02-18T21:13:35.889Z,18.37
2019-02-18T21:16:03.153Z,19.03
2019-02-18T21:18:30.433Z,19.30
2019-02-18T21:20:57.701Z,21.37
2019-02-18T21:23:24.912Z,21.00
2019-02-18T21:25:52.136Z,20.57
2019-02-18T21:28:19.383Z,22.13
2019-02-18T21:30:46.917Z,23.50
2019-02-18T21:33:14.165Z,21.27
2019-02-18T21:35:41.504Z,22.50
2019-02-18T21:38:08.715Z,22.77
2019-02-18T21:40:35.965Z,22.67
2019-02-18T21:43:03.182Z,21.53
2019-02-18T21:45:30.436Z,21.43
2019-02-18T21:47:57.704Z,23.23
2019-02-18T21:50:24.933Z,20.00
2019-02-18T21:52:52.195Z,20.50
2019-02-18T21:55:19.417Z,20.07
2019-02-18T21:57:46.636Z,19.97
2019-02-18T22:00:16.926Z,20.07
2019-02-18T22:02:44.172Z,20.23
2019-02-18T22:05:11.877Z,20.03
2019-02-18T22:07:39.095Z,19.97
2019-02-18T22:10:06.522Z,20.90
2019-02-18T22:12:33.741Z,18.33
2019-02-18T22:15:00.958Z,16.77
2019-02-18T22:17:28.211Z,15.47
2019-02-18T22:19:55.448Z,18.57
2019-02-18T22:22:22.700Z,18.93
2019-02-18T22:24:50.360Z,19.20
2019-02-18T22:27:17.581Z,20.43
2019-02-18T22:29:44.804Z,17.77
2019-02-18T22:32:12.095Z,19.53
2019-02-18T22:34:39.346Z,20.83
2019-02-18T22:37:06.671Z,19.40
2019-02-18T22:39:33.949Z,19.03
2019-02-18T22:42:01.156Z,19.10
2019-02-18T22:44:28.987Z,20.17
2019-02-18T22:46:56.256Z,20.73
2019-02-18T22:49:23.479Z,18.70
2019-02-18T22:51:50.719Z,17.93
2019-02-18T22:54:17.959Z,19.27
2019-02-18T22:56:45.227Z,16.77
2019-02-18T22:59:12.462Z,18.00
2019-02-18T23:01:40.476Z,19.40
2019-02-18T23:04:07.784Z,16.97
2019-02-18T23:06:35.082Z,19.53
2019-02-18T23:09:03.062Z,18.40
2019-02-18T23:11:30.300Z,18.40
2019-02-18T23:13:57.533Z,16.97
2019-02-18T23:16:24.818Z,16.57
2019-02-18T23:18:52.109Z,16.40
2019-02-18T23:21:19.620Z,17.50
2019-02-18T23:23:47.377Z,17.60
2019-02-18T23:26:14.617Z,18.30
2019-02-18T23:28:41.842Z,13.67
2019-02-18T23:31:09.113Z,15.67
2019-02-18T23:33:36.426Z,15.17
2019-02-18T23:36:03.691Z,16.33
2019-02-18T23:38:30.947Z,16.07
2019-02-18T23:40:58.189Z,15.50
2019-02-18T23:43:25.436Z,13.57
2019-02-18T23:45:52.705Z,14.30
2019-02-18T23:48:19.939Z,15.03
2019-02-18T23:50:47.260Z,14.97
2019-02-18T23:53:14.528Z,13.73
2019-02-18T23:55:41.752Z,13.40
2019-02-18T23:58:08.975Z,14.13
